createdAt,value
2023-05-20T00:02:05.093Z,3.90
2023-05-20T00:07:06.557Z,3.37
2023-05-20T00:12:08.021Z,3.10
2023-05-20T00:17:09.484Z,4.17
2023-05-20T00:22:10.913Z,3.10
2023-05-20T00:27:12.354Z,3.20
2023-05-20T00:32:13.825Z,3.27
2023-05-20T00:37:15.377Z,3.10
2023-05-20T00:42:16.819Z,3.57
2023-05-20T00:47:18.290Z,2.87
2023-05-20T00:52:19.749Z,4.03
2023-05-20T00:57:21.201Z,2.70
2023-05-20T01:02:22.783Z,2.90
2023-05-20T01:07:24.320Z,3.03
2023-05-20T01:12:25.778Z,3.23
2023-05-20T01:17:27.348Z,3.27
2023-05-20T01:22:28.848Z,2.50
2023-05-20T01:27:30.324Z,2.40
2023-05-20T01:32:31.825Z,2.80
2023-05-20T01:37:33.409Z,2.50
2023-05-20T01:42:34.854Z,3.17
2023-05-20T01:47:36.343Z,2.53
2023-05-20T01:52:37.805Z,2.70
2023-05-20T01:57:39.259Z,2.67
2023-05-20T02:02:40.876Z,2.63
2023-05-20T02:07:42.524Z,2.90
2023-05-20T02:12:43.958Z,2.60
2023-05-20T02:17:45.432Z,2.33
2023-05-20T02:22:46.879Z,2.70
2023-05-20T02:27:48.325Z,2.60
2023-05-20T02:32:49.836Z,2.77
2023-05-20T02:37:51.317Z,3.07
2023-05-20T02:42:52.772Z,2.57
2023-05-20T02:47:54.252Z,3.13
2023-05-20T02:52:55.698Z,3.10
2023-05-20T02:57:57.152Z,2.90
2023-05-20T03:02:58.819Z,3.00
2023-05-20T03:08:00.348Z,2.33
2023-05-20T03:13:01.819Z,3.00
2023-05-20T03:18:03.366Z,2.73
2023-05-20T03:23:04.879Z,2.57
2023-05-20T03:28:06.329Z,2.83
2023-05-20T03:33:07.788Z,3.27
2023-05-20T03:38:09.293Z,2.57
2023-05-20T03:43:10.753Z,3.07
2023-05-20T03:48:12.185Z,3.00
2023-05-20T03:53:13.632Z,3.03
2023-05-20T03:58:15.088Z,2.67
2023-05-20T04:03:16.612Z,3.00
2023-05-20T04:08:18.113Z,2.90
2023-05-20T04:13:19.558Z,2.70
2023-05-20T04:18:20.994Z,2.70
2023-05-20T04:23:22.435Z,2.70
2023-05-20T04:28:23.892Z,3.43
2023-05-20T04:33:25.359Z,2.80
2023-05-20T04:38:28.854Z,2.40
2023-05-20T04:43:30.982Z,3.00
2023-05-20T04:48:32.416Z,2.63
2023-05-20T04:53:33.988Z,2.60
2023-05-20T04:58:35.554Z,2.60
2023-05-20T05:03:37.149Z,3.30
2023-05-20T05:08:38.664Z,2.43
2023-05-20T05:13:40.111Z,3.20
2023-05-20T05:18:41.618Z,3.13
2023-05-20T05:23:43.101Z,2.90
2023-05-20T05:28:44.556Z,3.20
2023-05-20T05:33:46.006Z,3.33
2023-05-20T05:38:47.465Z,3.00
2023-05-20T05:43:48.905Z,3.57
2023-05-20T05:48:50.381Z,2.60
2023-05-20T05:53:51.868Z,3.47
2023-05-20T05:58:53.331Z,3.07
2023-05-20T06:03:54.877Z,3.10
2023-05-20T06:08:56.385Z,2.93
2023-05-20T06:13:57.868Z,3.00
2023-05-20T06:19:01.587Z,3.23
2023-05-20T06:24:04.737Z,3.10
2023-05-20T06:29:06.188Z,3.30
2023-05-20T06:34:07.662Z,3.23
2023-05-20T06:39:09.225Z,3.83
2023-05-20T06:44:10.684Z,3.67
2023-05-20T06:49:12.142Z,3.57
2023-05-20T06:54:13.610Z,3.47
2023-05-20T06:59:15.116Z,3.50
2023-05-20T07:04:16.598Z,3.90
2023-05-20T07:09:18.069Z,4.33
2023-05-20T07:14:19.563Z,3.67
2023-05-20T07:19:21.106Z,3.90
2023-05-20T07:24:22.626Z,3.90
2023-05-20T07:29:24.085Z,3.60
2023-05-20T07:34:25.537Z,4.20
2023-05-20T07:39:26.978Z,3.67
2023-05-20T07:44:28.442Z,3.80
2023-05-20T07:49:29.926Z,3.90
2023-05-20T07:54:31.549Z,3.63
2023-05-20T07:59:32.999Z,4.20
2023-05-20T08:04:34.639Z,4.40
2023-05-20T08:09:36.216Z,4.40
2023-05-20T08:14:37.692Z,5.20
2023-05-20T08:19:39.207Z,4.20
2023-05-20T08:24:40.673Z,3.87
2023-05-20T08:29:42.114Z,4.47
2023-05-20T08:34:43.551Z,3.90
2023-05-20T08:39:44.990Z,4.77
2023-05-20T08:44:46.452Z,4.33
2023-05-20T08:49:47.934Z,4.80
2023-05-20T08:54:49.460Z,4.50
2023-05-20T08:59:50.924Z,4.93
2023-05-20T09:04:52.411Z,5.53
2023-05-20T09:09:53.871Z,5.30
2023-05-20T09:14:55.322Z,5.27
2023-05-20T09:19:56.774Z,5.20
2023-05-20T09:24:58.209Z,5.50
2023-05-20T09:29:59.709Z,5.37
2023-05-20T09:35:01.157Z,5.40
2023-05-20T09:40:02.637Z,6.07
2023-05-20T09:45:04.066Z,6.30
2023-05-20T09:50:05.523Z,6.80
2023-05-20T09:55:06.977Z,7.60
2023-05-20T10:00:08.448Z,6.73
2023-05-20T10:05:09.933Z,7.60
2023-05-20T10:10:13.139Z,6.10
2023-05-20T10:15:14.586Z,7.17
2023-05-20T10:20:16.085Z,6.50
2023-05-20T10:25:17.585Z,6.90
2023-05-20T10:30:19.043Z,7.00
2023-05-20T10:35:20.519Z,6.37
2023-05-20T10:40:21.991Z,7.07
2023-05-20T10:45:23.448Z,6.40
2023-05-20T10:50:24.962Z,6.20
2023-05-20T10:55:26.433Z,6.60
2023-05-20T11:00:27.882Z,6.50
2023-05-20T11:05:29.328Z,5.73
2023-05-20T11:10:30.801Z,5.90
2023-05-20T11:15:32.297Z,6.20
2023-05-20T11:20:33.889Z,6.30
2023-05-20T11:25:35.525Z,6.70
2023-05-20T11:30:37.113Z,5.93
2023-05-20T11:35:38.839Z,6.60
2023-05-20T11:40:49.934Z,5.83
2023-05-20T11:45:52.814Z,5.97
2023-05-20T11:50:54.314Z,6.07
2023-05-20T11:55:55.783Z,7.30
2023-05-20T12:01:05.726Z,7.37
2023-05-20T12:06:15.310Z,7.20
2023-05-20T12:11:16.815Z,6.90
2023-05-20T12:16:18.357Z,6.57
2023-05-20T12:21:19.878Z,6.60
2023-05-20T12:26:21.446Z,6.30
2023-05-20T12:31:22.935Z,6.07
2023-05-20T12:36:24.488Z,5.40
2023-05-20T12:41:25.977Z,5.67
2023-05-20T12:46:27.509Z,6.00
2023-05-20T12:51:28.951Z,5.70
2023-05-20T12:56:30.392Z,5.70
2023-05-20T13:01:32.080Z,4.80
2023-05-20T13:06:33.655Z,4.70
2023-05-20T13:11:35.126Z,5.47
2023-05-20T13:16:36.634Z,5.70
2023-05-20T13:21:38.117Z,5.27
2023-05-20T13:26:39.614Z,5.33
2023-05-20T13:31:41.124Z,6.60
2023-05-20T13:36:42.694Z,5.37
2023-05-20T13:41:44.153Z,5.43
2023-05-20T13:46:45.695Z,5.93
2023-05-20T13:51:47.275Z,5.00
2023-05-20T13:56:48.768Z,5.20
2023-05-20T14:01:50.265Z,4.77
2023-05-20T14:06:51.751Z,4.90
2023-05-20T14:11:53.308Z,5.90
2023-05-20T14:16:54.782Z,5.13
2023-05-20T14:21:56.256Z,4.40
2023-05-20T14:26:57.789Z,4.93
2023-05-20T14:31:59.285Z,4.33
2023-05-20T14:37:00.762Z,4.80
2023-05-20T14:42:02.193Z,5.00
2023-05-20T14:47:03.707Z,4.83
2023-05-20T14:52:05.180Z,5.43
2023-05-20T14:57:06.653Z,4.80
2023-05-20T15:02:08.236Z,5.43
2023-05-20T15:07:09.726Z,5.80
2023-05-20T15:12:11.474Z,5.70
2023-05-20T15:17:12.988Z,4.93
2023-05-20T15:22:14.581Z,5.43
2023-05-20T15:27:16.037Z,5.00
2023-05-20T15:32:17.502Z,5.30
2023-05-20T15:37:18.968Z,5.13
2023-05-20T15:42:20.449Z,6.03
2023-05-20T15:47:21.901Z,5.77
2023-05-20T15:52:23.380Z,6.03
2023-05-20T15:57:24.847Z,6.00
2023-05-20T16:02:26.514Z,7.57
2023-05-20T16:07:28.186Z,6.70
2023-05-20T16:12:29.629Z,5.70
2023-05-20T16:17:31.131Z,5.93
2023-05-20T16:22:34.454Z,6.87
2023-05-20T16:27:36.532Z,6.07
2023-05-20T16:32:38.011Z,5.67
2023-05-20T16:37:39.493Z,6.33
2023-05-20T16:42:40.940Z,5.80
2023-05-20T16:47:42.466Z,5.67
2023-05-20T16:52:44.020Z,6.10
2023-05-20T16:57:45.571Z,5.57
2023-05-20T17:02:47.040Z,4.90
2023-05-20T17:07:48.526Z,5.47
2023-05-20T17:12:49.969Z,4.87
2023-05-20T17:17:51.515Z,5.63
2023-05-20T17:22:53.148Z,5.47
2023-05-20T17:27:54.683Z,5.40
2023-05-20T17:32:56.389Z,4.53
2023-05-20T17:37:57.902Z,4.30
2023-05-20T17:42:59.345Z,5.27
2023-05-20T17:48:00.832Z,5.97
2023-05-20T17:53:02.316Z,5.80
2023-05-20T17:58:03.780Z,5.50
2023-05-20T18:03:05.319Z,5.50
2023-05-20T18:08:06.876Z,4.83
2023-05-20T18:13:08.513Z,4.70
2023-05-20T18:18:09.991Z,5.97
2023-05-20T18:23:11.509Z,5.40
2023-05-20T18:28:12.956Z,5.23
2023-05-20T18:33:14.441Z,4.53
2023-05-20T18:38:15.927Z,5.43
2023-05-20T18:43:17.384Z,5.60
2023-05-20T18:48:26.025Z,5.73
2023-05-20T18:53:28.660Z,5.60
2023-05-20T18:58:30.132Z,6.23
2023-05-20T19:03:31.614Z,6.97
2023-05-20T19:08:33.140Z,6.60
2023-05-20T19:13:34.584Z,6.07
2023-05-20T19:18:36.060Z,6.10
2023-05-20T19:23:37.561Z,6.73
2023-05-20T19:28:39.292Z,7.70
2023-05-20T19:33:40.892Z,7.30
2023-05-20T19:38:42.377Z,7.60
2023-05-20T19:43:43.831Z,7.40
2023-05-20T19:48:45.293Z,7.87
2023-05-20T19:53:46.776Z,8.10
2023-05-20T19:58:48.270Z,7.90
2023-05-20T20:03:49.703Z,7.97
2023-05-20T20:08:51.149Z,8.40
2023-05-20T20:13:52.683Z,8.67
2023-05-20T20:18:54.143Z,7.77
2023-05-20T20:23:55.650Z,8.43
2023-05-20T20:28:57.120Z,8.83
2023-05-20T20:33:58.589Z,8.40
2023-05-20T20:39:00.208Z,8.53
2023-05-20T20:44:01.664Z,8.00
2023-05-20T20:49:03.112Z,8.33
2023-05-20T20:54:04.611Z,8.00
2023-05-20T20:59:06.074Z,8.43
2023-05-20T21:04:07.580Z,7.30
2023-05-20T21:09:09.117Z,8.20
2023-05-20T21:14:10.562Z,7.50
2023-05-20T21:19:12.045Z,8.03
2023-05-20T21:24:13.576Z,7.47
2023-05-20T21:29:15.036Z,8.10
2023-05-20T21:34:16.511Z,7.40
2023-05-20T21:39:17.959Z,7.87
2023-05-20T21:44:19.423Z,7.57
2023-05-20T21:49:20.877Z,7.70
2023-05-20T21:54:22.348Z,7.67
2023-05-20T21:59:24.132Z,9.10
2023-05-20T22:04:25.586Z,8.47
2023-05-20T22:09:27.033Z,8.47
2023-05-20T22:14:28.502Z,8.40
2023-05-20T22:19:32.786Z,8.20
2023-05-20T22:24:34.232Z,8.13
2023-05-20T22:29:35.727Z,9.60
2023-05-20T22:34:37.206Z,9.40
2023-05-20T22:39:38.682Z,8.60
2023-05-20T22:44:40.139Z,8.43
2023-05-20T22:49:41.606Z,8.93
2023-05-20T22:54:43.069Z,8.57
2023-05-20T22:59:44.535Z,8.33
2023-05-20T23:04:46.035Z,8.83
2023-05-20T23:09:48.638Z,8.10
2023-05-20T23:14:50.240Z,9.00
2023-05-20T23:19:51.690Z,8.43
2023-05-20T23:24:53.160Z,10.20
2023-05-20T23:29:54.630Z,8.17
2023-05-20T23:34:56.117Z,7.90
2023-05-20T23:39:57.543Z,8.27
2023-05-20T23:44:59.000Z,9.13
2023-05-20T23:50:00.454Z,8.57
2023-05-20T23:55:01.922Z,8.37
